createdAt,value
2023-04-14T00:00:06.969Z,5.17
2023-04-14T00:03:14.658Z,5.87
2023-04-14T00:06:16.566Z,5.43
2023-04-14T00:09:18.197Z,5.53
2023-04-14T00:12:19.839Z,5.20
2023-04-14T00:15:22.131Z,5.10
2023-04-14T00:18:23.941Z,4.33
2023-04-14T00:21:27.073Z,4.67
2023-04-14T00:24:28.750Z,4.90
2023-04-14T00:27:31.238Z,5.23
2023-04-14T00:30:33.074Z,5.10
2023-04-14T00:33:34.690Z,3.73
2023-04-14T00:36:37.105Z,4.10
2023-04-14T00:39:38.710Z,4.70
2023-04-14T00:42:47.073Z,4.43
2023-04-14T00:45:49.857Z,4.43
2023-04-14T00:48:51.654Z,4.00
2023-04-14T00:51:53.507Z,3.80
2023-04-14T00:54:55.243Z,4.30
2023-04-14T00:57:56.880Z,3.50
2023-04-14T01:00:58.698Z,3.37
2023-04-14T01:04:01.021Z,4.20
2023-04-14T01:07:03.229Z,4.10
2023-04-14T01:10:05.946Z,4.50
2023-04-14T01:13:15.058Z,4.30
2023-04-14T01:16:19.309Z,4.73
2023-04-14T01:19:37.167Z,4.27
2023-04-14T01:22:47.897Z,4.60
2023-04-14T01:25:55.922Z,4.73
2023-04-14T01:29:15.838Z,3.27
2023-04-14T01:32:20.532Z,3.50
2023-04-14T01:35:29.416Z,3.10
2023-04-14T01:38:34.374Z,3.27
2023-04-14T01:41:39.268Z,3.33
2023-04-14T01:44:41.200Z,3.77
2023-04-14T01:47:43.492Z,3.70
2023-04-14T01:50:45.891Z,3.57
2023-04-14T01:53:49.751Z,3.50
2023-04-14T01:56:52.504Z,3.63
2023-04-14T01:59:57.369Z,3.60
2023-04-14T02:02:59.446Z,3.70
2023-04-14T02:06:04.046Z,3.60
2023-04-14T02:09:06.402Z,3.97
2023-04-14T02:12:09.324Z,3.97
2023-04-14T02:15:13.689Z,3.83
2023-04-14T02:18:15.850Z,3.90
2023-04-14T02:21:18.592Z,3.80
2023-04-14T02:24:21.683Z,4.23
2023-04-14T02:27:43.535Z,4.43
2023-04-14T02:30:48.077Z,4.40
2023-04-14T02:33:53.517Z,3.67
2023-04-14T02:36:56.565Z,3.57
2023-04-14T02:40:03.502Z,3.20
2023-04-14T02:43:25.889Z,3.30
2023-04-14T02:46:29.458Z,3.50
2023-04-14T02:49:36.701Z,2.80
2023-04-14T02:52:39.118Z,2.60
2023-04-14T02:55:41.102Z,3.40
2023-04-14T02:58:43.372Z,3.87
2023-04-14T03:01:45.564Z,4.23
2023-04-14T03:04:47.475Z,3.70
2023-04-14T03:08:04.314Z,3.50
2023-04-14T03:11:06.559Z,3.80
2023-04-14T03:14:08.441Z,3.67
2023-04-14T03:17:14.815Z,3.27
2023-04-14T03:20:20.221Z,3.40
2023-04-14T03:23:24.709Z,3.60
2023-04-14T03:26:32.467Z,6.00
2023-04-14T03:29:39.323Z,2.93
2023-04-14T03:32:42.424Z,3.17
2023-04-14T03:35:47.185Z,4.63
2023-04-14T03:38:49.926Z,3.27
2023-04-14T03:41:54.761Z,3.93
2023-04-14T03:44:58.597Z,4.00
2023-04-14T03:48:02.705Z,3.53
2023-04-14T03:51:11.067Z,2.77
2023-04-14T03:54:15.853Z,2.50
2023-04-14T03:57:18.226Z,2.03
2023-04-14T04:00:21.307Z,2.53
2023-04-14T04:03:23.610Z,2.60
2023-04-14T04:06:26.458Z,3.67
2023-04-14T04:09:30.065Z,2.80
2023-04-14T04:12:32.048Z,3.10
2023-04-14T04:15:36.639Z,3.03
2023-04-14T04:18:39.111Z,3.33
2023-04-14T04:21:44.576Z,2.60
2023-04-14T04:24:48.016Z,3.23
2023-04-14T04:27:56.559Z,3.00
2023-04-14T04:31:00.702Z,3.00
2023-04-14T04:34:06.277Z,3.10
2023-04-14T04:37:11.115Z,2.40
2023-04-14T04:40:13.501Z,2.70
2023-04-14T04:43:17.163Z,2.80
2023-04-14T04:46:32.778Z,2.60
2023-04-14T04:49:34.615Z,2.50
2023-04-14T04:52:37.872Z,2.63
2023-04-14T04:55:40.959Z,2.60
2023-04-14T04:58:42.729Z,3.07
2023-04-14T05:01:44.542Z,2.60
2023-04-14T05:04:46.302Z,3.47
2023-04-14T05:07:48.013Z,2.87
2023-04-14T05:10:49.677Z,2.80
2023-04-14T05:13:51.366Z,2.50
2023-04-14T05:16:53.011Z,2.70
2023-04-14T05:19:54.674Z,3.10
2023-04-14T05:22:56.375Z,3.17
2023-04-14T05:26:07.206Z,2.60
2023-04-14T05:29:19.694Z,2.60
2023-04-14T05:32:22.194Z,3.20
2023-04-14T05:35:25.364Z,3.23
2023-04-14T05:38:27.245Z,3.07
2023-04-14T05:41:28.877Z,3.10
2023-04-14T05:44:30.582Z,3.83
2023-04-14T05:47:32.988Z,3.43
2023-04-14T05:50:35.237Z,2.70
2023-04-14T05:53:36.978Z,2.57
2023-04-14T05:56:39.024Z,3.03
2023-04-14T05:59:41.516Z,2.73
2023-04-14T06:02:44.868Z,2.70
2023-04-14T06:05:48.287Z,2.80
2023-04-14T06:08:52.209Z,2.27
2023-04-14T06:11:58.230Z,2.70
2023-04-14T06:15:00.167Z,2.63
2023-04-14T06:18:01.935Z,3.03
2023-04-14T06:21:03.730Z,2.90
2023-04-14T06:24:06.016Z,2.60
2023-04-14T06:27:09.778Z,2.93
2023-04-14T06:30:11.977Z,2.80
2023-04-14T06:33:13.644Z,3.03
2023-04-14T06:36:18.243Z,2.70
2023-04-14T06:39:22.752Z,2.70
2023-04-14T06:42:24.469Z,2.70
2023-04-14T06:45:26.217Z,2.70
2023-04-14T06:48:28.140Z,2.90
2023-04-14T06:51:30.204Z,2.93
2023-04-14T06:54:32.075Z,3.47
2023-04-14T06:57:33.675Z,2.60
2023-04-14T07:00:35.355Z,2.60
2023-04-14T07:03:37.686Z,3.00
2023-04-14T07:06:39.440Z,2.90
2023-04-14T07:09:44.196Z,2.60
2023-04-14T07:12:45.961Z,2.80
2023-04-14T07:15:47.970Z,2.87
2023-04-14T07:18:49.802Z,2.93
2023-04-14T07:21:51.467Z,2.73
2023-04-14T07:24:54.157Z,2.80
2023-04-14T07:28:03.226Z,2.87
2023-04-14T07:31:11.777Z,2.67
2023-04-14T07:34:13.464Z,2.70
2023-04-14T07:37:16.489Z,2.60
2023-04-14T07:40:18.185Z,2.83
2023-04-14T07:43:19.994Z,3.07
2023-04-14T07:46:22.213Z,2.90
2023-04-14T07:49:24.265Z,3.03
2023-04-14T07:52:25.970Z,3.10
2023-04-14T07:55:27.679Z,3.00
2023-04-14T07:58:30.041Z,2.70
2023-04-14T08:01:31.838Z,2.97
2023-04-14T08:04:33.585Z,2.90
2023-04-14T08:07:35.269Z,3.40
2023-04-14T08:10:40.682Z,4.20
2023-04-14T08:13:42.705Z,3.30
2023-04-14T08:16:44.456Z,4.03
2023-04-14T08:19:46.851Z,3.30
2023-04-14T08:22:48.521Z,4.10
2023-04-14T08:25:50.223Z,4.33
2023-04-14T08:28:51.859Z,5.80
2023-04-14T08:31:54.572Z,3.67
2023-04-14T08:35:35.576Z,3.00
2023-04-14T08:38:18.097Z,3.40
2023-04-14T08:41:20.627Z,2.90
2023-04-14T08:44:22.317Z,3.23
2023-04-14T08:47:24.517Z,4.07
2023-04-14T08:50:27.053Z,3.50
2023-04-14T08:53:29.844Z,4.33
2023-04-14T08:56:34.532Z,4.17
2023-04-14T08:59:36.416Z,4.70
2023-04-14T09:02:40.572Z,4.80
2023-04-14T09:05:42.842Z,4.67
2023-04-14T09:08:44.680Z,4.50
2023-04-14T09:11:46.557Z,5.00
2023-04-14T09:14:48.573Z,5.70
2023-04-14T09:17:51.220Z,4.77
2023-04-14T09:21:30.247Z,7.30
2023-04-14T09:24:17.991Z,8.00
2023-04-14T09:27:19.635Z,8.33
2023-04-14T09:30:21.486Z,10.23
2023-04-14T09:33:23.468Z,8.73
2023-04-14T09:36:29.297Z,9.37
2023-04-14T09:39:34.212Z,10.60
2023-04-14T09:42:40.185Z,10.07
2023-04-14T09:45:43.240Z,10.23
2023-04-14T09:48:55.263Z,10.53
2023-04-14T09:52:06.399Z,11.53
2023-04-14T09:55:12.398Z,11.10
2023-04-14T09:58:21.171Z,8.30
2023-04-14T10:01:22.982Z,11.87
2023-04-14T10:04:26.574Z,12.57
2023-04-14T10:07:28.356Z,10.80
2023-04-14T10:10:30.109Z,8.30
2023-04-14T10:13:31.757Z,11.07
2023-04-14T10:16:36.922Z,10.20
2023-04-14T10:19:38.904Z,11.20
2023-04-14T10:22:41.424Z,11.27
2023-04-14T10:25:43.380Z,10.70
2023-04-14T10:28:46.022Z,11.90
2023-04-14T10:31:58.822Z,11.37
2023-04-14T10:35:03.766Z,11.17
2023-04-14T10:38:05.559Z,9.83
2023-04-14T10:41:07.803Z,9.17
2023-04-14T10:44:21.719Z,8.67
2023-04-14T10:47:25.093Z,8.47
2023-04-14T10:50:29.124Z,8.90
2023-04-14T10:53:35.150Z,7.40
2023-04-14T10:56:38.462Z,7.17
2023-04-14T10:59:43.423Z,7.40
2023-04-14T11:03:05.594Z,7.43
2023-04-14T11:06:07.923Z,6.07
2023-04-14T11:09:22.107Z,5.90
2023-04-14T11:12:25.123Z,5.93
2023-04-14T11:15:45.465Z,5.27
2023-04-14T11:18:47.506Z,6.33
2023-04-14T11:21:56.760Z,6.10
2023-04-14T11:24:58.474Z,5.37
2023-04-14T11:28:02.655Z,5.30
2023-04-14T11:31:05.566Z,5.33
2023-04-14T11:34:07.183Z,5.87
2023-04-14T11:37:08.884Z,5.60
2023-04-14T11:40:11.813Z,5.57
2023-04-14T11:43:13.762Z,5.13
2023-04-14T11:46:18.528Z,5.27
2023-04-14T11:49:22.189Z,5.20
2023-04-14T11:52:24.025Z,4.80
2023-04-14T11:55:26.837Z,5.33
2023-04-14T11:58:28.974Z,4.90
2023-04-14T12:01:30.991Z,5.07
2023-04-14T12:04:32.845Z,4.63
2023-04-14T12:07:37.257Z,4.70
2023-04-14T12:10:40.100Z,4.27
2023-04-14T12:13:42.427Z,4.97
2023-04-14T12:16:44.239Z,4.77
2023-04-14T12:19:45.985Z,5.70
2023-04-14T12:22:49.163Z,5.10
2023-04-14T12:25:51.521Z,4.57
2023-04-14T12:28:59.838Z,4.33
2023-04-14T12:32:02.735Z,4.37
2023-04-14T12:35:05.427Z,4.60
2023-04-14T12:38:13.232Z,3.80
2023-04-14T12:41:24.405Z,4.00
2023-04-14T12:44:26.150Z,4.23
2023-04-14T12:47:31.877Z,4.70
2023-04-14T12:50:34.077Z,4.43
2023-04-14T12:53:35.840Z,4.43
2023-04-14T12:56:41.116Z,4.13
2023-04-14T12:59:43.230Z,4.10
2023-04-14T13:02:46.826Z,4.50
2023-04-14T13:05:52.706Z,4.23
2023-04-14T13:08:55.098Z,3.80
2023-04-14T13:11:57.912Z,4.20
2023-04-14T13:15:00.527Z,4.40
2023-04-14T13:18:02.186Z,4.13
2023-04-14T13:21:04.312Z,4.00
2023-04-14T13:24:07.060Z,4.00
2023-04-14T13:27:08.657Z,4.43
2023-04-14T13:30:10.461Z,4.27
2023-04-14T13:33:12.134Z,7.13
2023-04-14T13:36:13.921Z,5.17
2023-04-14T13:39:15.992Z,4.63
2023-04-14T13:42:17.639Z,5.77
2023-04-14T13:45:19.370Z,5.20
2023-04-14T13:48:21.075Z,4.30
2023-04-14T13:51:23.682Z,3.97
2023-04-14T13:54:25.459Z,4.77
2023-04-14T13:57:27.572Z,5.30
2023-04-14T14:00:29.296Z,5.00
2023-04-14T14:03:32.440Z,3.60
2023-04-14T14:06:34.336Z,4.20
2023-04-14T14:09:35.988Z,4.30
2023-04-14T14:12:37.750Z,4.50
2023-04-14T14:15:39.426Z,4.70
2023-04-14T14:18:41.723Z,4.33
2023-04-14T14:21:44.181Z,4.67
2023-04-14T14:24:45.770Z,4.27
2023-04-14T14:27:47.743Z,5.50
2023-04-14T14:30:49.488Z,4.80
2023-04-14T14:33:51.347Z,4.80
2023-04-14T14:36:53.584Z,5.00
2023-04-14T14:39:55.443Z,5.10
2023-04-14T14:42:57.175Z,4.70
2023-04-14T14:45:58.956Z,4.50
2023-04-14T14:49:00.821Z,6.23
2023-04-14T14:52:04.640Z,4.53
2023-04-14T14:55:06.737Z,4.70
2023-04-14T14:58:08.501Z,5.10
2023-04-14T15:01:10.537Z,4.53
2023-04-14T15:04:12.486Z,4.73
2023-04-14T15:07:14.235Z,5.30
2023-04-14T15:10:15.934Z,4.90
2023-04-14T15:13:17.981Z,4.77
2023-04-14T15:16:19.705Z,5.00
2023-04-14T15:19:21.326Z,4.90
2023-04-14T15:22:23.030Z,4.60
2023-04-14T15:25:24.812Z,5.60
2023-04-14T15:28:27.094Z,5.20
2023-04-14T15:31:29.165Z,5.23
2023-04-14T15:34:30.866Z,5.93
2023-04-14T15:37:32.431Z,5.73
2023-04-14T15:40:34.228Z,6.30
2023-04-14T15:43:35.956Z,6.40
2023-04-14T15:46:37.607Z,5.40
2023-04-14T15:49:40.726Z,6.03
2023-04-14T15:52:42.320Z,5.77
2023-04-14T15:55:44.468Z,5.67
2023-04-14T15:58:46.512Z,6.40
2023-04-14T16:01:48.355Z,6.03
2023-04-14T16:04:50.263Z,6.70
2023-04-14T16:07:52.056Z,6.40
2023-04-14T16:10:53.738Z,6.50
2023-04-14T16:13:55.788Z,8.00
2023-04-14T16:16:57.569Z,11.80
2023-04-14T16:19:59.296Z,8.77
2023-04-14T16:23:01.197Z,9.83
2023-04-14T16:26:02.923Z,11.07
2023-04-14T16:29:04.666Z,11.43
2023-04-14T16:32:06.480Z,12.20
2023-04-14T16:35:08.419Z,11.87
2023-04-14T16:38:10.074Z,11.07
2023-04-14T16:41:11.962Z,13.17
2023-04-14T16:44:13.776Z,12.33
2023-04-14T16:47:15.557Z,21.00
2023-04-14T16:50:17.314Z,39.33
2023-04-14T16:53:19.135Z,25.40
2023-04-14T16:56:20.831Z,35.07
2023-04-14T16:59:22.790Z,29.80
2023-04-14T17:02:24.539Z,21.53
2023-04-14T17:05:26.464Z,24.33
2023-04-14T17:08:28.190Z,20.83
2023-04-14T17:11:29.915Z,25.97
2023-04-14T17:14:32.575Z,25.70
2023-04-14T17:17:35.130Z,32.70
2023-04-14T17:20:39.506Z,24.43
2023-04-14T17:23:41.261Z,25.83
2023-04-14T17:26:44.328Z,18.23
2023-04-14T17:29:46.504Z,19.63
2023-04-14T17:32:48.976Z,25.10
2023-04-14T17:35:50.969Z,22.90
2023-04-14T17:38:52.663Z,21.33
2023-04-14T17:41:55.068Z,22.33
2023-04-14T17:44:56.835Z,23.33
2023-04-14T17:47:58.567Z,19.30
2023-04-14T17:51:01.518Z,16.63
2023-04-14T17:54:04.506Z,21.13
2023-04-14T17:57:06.500Z,20.50
2023-04-14T18:00:10.083Z,17.80
2023-04-14T18:03:16.163Z,18.27
2023-04-14T18:06:18.104Z,21.70
2023-04-14T18:09:19.775Z,22.07
2023-04-14T18:12:24.308Z,18.47
2023-04-14T18:15:25.948Z,15.90
2023-04-14T18:18:27.750Z,15.47
2023-04-14T18:21:29.713Z,13.27
2023-04-14T18:30:40.490Z,21.13
2023-04-14T18:33:42.409Z,25.70
2023-04-14T18:36:44.287Z,23.93
2023-04-14T18:39:45.886Z,20.47
2023-04-14T18:42:49.007Z,18.33
2023-04-14T18:45:50.718Z,22.00
2023-04-14T18:48:52.342Z,16.33
2023-04-14T18:51:54.895Z,15.40
2023-04-14T18:54:57.345Z,17.37
2023-04-14T18:57:58.905Z,19.73
2023-04-14T19:01:00.590Z,15.80
2023-04-14T19:04:03.138Z,15.67
2023-04-14T19:07:05.003Z,16.27
2023-04-14T19:10:06.852Z,14.13
2023-04-14T19:13:08.489Z,14.57
2023-04-14T19:16:13.475Z,16.20
2023-04-14T19:19:15.186Z,16.10
2023-04-14T19:22:17.004Z,15.10
2023-04-14T19:25:18.740Z,16.30
2023-04-14T19:28:20.533Z,13.40
2023-04-14T19:31:22.276Z,13.83
2023-04-14T19:34:24.068Z,15.73
2023-04-14T19:37:26.671Z,13.60
2023-04-14T19:40:29.136Z,16.73
2023-04-14T19:43:31.022Z,16.10
2023-04-14T19:46:35.647Z,14.50
2023-04-14T19:49:37.575Z,14.07
2023-04-14T19:52:39.270Z,9.67
2023-04-14T19:55:40.934Z,11.10
2023-04-14T19:58:43.351Z,9.80
2023-04-14T20:01:45.520Z,11.73
2023-04-14T20:04:48.565Z,8.40
2023-04-14T20:07:50.639Z,8.47
2023-04-14T20:10:58.030Z,9.67
2023-04-14T20:13:59.784Z,8.10
2023-04-14T20:17:01.411Z,10.90
2023-04-14T20:20:05.837Z,9.77
2023-04-14T20:23:07.474Z,6.83
2023-04-14T20:26:10.901Z,6.33
2023-04-14T20:29:12.670Z,5.43
2023-04-14T20:32:14.336Z,5.70
2023-04-14T20:35:15.998Z,6.00
2023-04-14T20:38:17.700Z,5.90
2023-04-14T20:41:19.307Z,5.73
2023-04-14T20:44:21.576Z,5.83
2023-04-14T20:47:23.747Z,5.70
2023-04-14T20:50:25.618Z,6.33
2023-04-14T20:53:28.705Z,5.80
2023-04-14T20:56:30.952Z,4.20
2023-04-14T20:59:32.746Z,4.40
2023-04-14T21:02:34.689Z,4.57
2023-04-14T21:05:36.442Z,3.17
2023-04-14T21:08:39.545Z,3.00
2023-04-14T21:11:41.542Z,2.50
2023-04-14T21:15:29.674Z,3.00
2023-04-14T21:18:05.310Z,3.07
2023-04-14T21:21:06.921Z,2.77
2023-04-14T21:24:08.680Z,2.40
2023-04-14T21:27:10.339Z,2.10
2023-04-14T21:30:12.037Z,2.30
2023-04-14T21:33:13.751Z,2.67
2023-04-14T21:36:15.746Z,1.43
2023-04-14T21:39:17.625Z,2.50
2023-04-14T21:42:19.391Z,2.30
2023-04-14T21:45:21.024Z,2.73
2023-04-14T21:48:23.599Z,2.40
2023-04-14T21:51:25.285Z,3.40
2023-04-14T21:54:27.157Z,2.63
2023-04-14T21:57:45.289Z,3.70
2023-04-14T22:00:53.635Z,3.23
2023-04-14T22:03:56.166Z,3.00
2023-04-14T22:06:57.991Z,2.60
2023-04-14T22:09:59.664Z,2.10
2023-04-14T22:13:01.343Z,2.00
2023-04-14T22:16:03.813Z,1.40
2023-04-14T22:19:05.613Z,1.67
2023-04-14T22:22:07.621Z,2.00
2023-04-14T22:25:09.765Z,1.90
2023-04-14T22:28:11.343Z,2.60
2023-04-14T22:31:13.509Z,1.93
2023-04-14T22:34:15.245Z,3.00
2023-04-14T22:37:17.015Z,2.03
2023-04-14T22:40:18.710Z,2.13
2023-04-14T22:43:20.586Z,3.67
2023-04-14T22:46:22.342Z,3.03
2023-04-14T22:49:23.983Z,3.10
2023-04-14T22:52:26.697Z,2.70
2023-04-14T22:55:28.394Z,1.93
2023-04-14T22:58:38.852Z,1.87
2023-04-14T23:01:40.618Z,2.13
2023-04-14T23:04:42.540Z,1.60
2023-04-14T23:07:44.500Z,1.80
2023-04-14T23:10:46.352Z,1.90
2023-04-14T23:13:48.768Z,2.40
2023-04-14T23:16:50.510Z,2.30
2023-04-14T23:19:52.615Z,2.27
2023-04-14T23:22:54.255Z,2.33
2023-04-14T23:25:56.380Z,2.20
2023-04-14T23:28:58.125Z,2.20
2023-04-14T23:31:59.794Z,1.73
2023-04-14T23:35:01.742Z,1.60
2023-04-14T23:38:04.138Z,2.27
2023-04-14T23:41:05.765Z,2.10
2023-04-14T23:44:09.648Z,1.83
2023-04-14T23:47:11.399Z,2.10
2023-04-14T23:50:13.155Z,2.00
2023-04-14T23:53:15.603Z,2.07
2023-04-14T23:56:17.671Z,1.90
2023-04-14T23:59:19.364Z,1.70
